sensor_id;sensor_type;location;lat;lon;timestamp;P1;durP1;ratioP1;P2;durP2;ratioP2
25511;SDS011;13414;44.534;18.700;2022-12-11T00:01:56;4.38;;;2.30;;
25511;SDS011;13414;44.534;18.700;2022-12-11T00:04:23;4.75;;;2.30;;
25511;SDS011;13414;44.534;18.700;2022-12-11T00:06:51;5.97;;;2.83;;
25511;SDS011;13414;44.534;18.700;2022-12-11T00:09:19;4.97;;;2.40;;
25511;SDS011;13414;44.534;18.700;2022-12-11T00:11:48;5.40;;;2.72;;
25511;SDS011;13414;44.534;18.700;2022-12-11T00:14:15;5.68;;;2.60;;
25511;SDS011;13414;44.534;18.700;2022-12-11T00:16:44;4.35;;;2.10;;
25511;SDS011;13414;44.534;18.700;2022-12-11T00:19:13;5.53;;;2.35;;
25511;SDS011;13414;44.534;18.700;2022-12-11T00:21:41;5.18;;;2.80;;
25511;SDS011;13414;44.534;18.700;2022-12-11T00:24:08;6.25;;;3.08;;
25511;SDS011;13414;44.534;18.700;2022-12-11T00:26:36;7.35;;;3.30;;
25511;SDS011;13414;44.534;18.700;2022-12-11T00:29:05;4.28;;;2.13;;
25511;SDS011;13414;44.534;18.700;2022-12-11T00:31:35;8.10;;;3.53;;
25511;SDS011;13414;44.534;18.700;2022-12-11T00:34:02;6.60;;;3.53;;
25511;SDS011;13414;44.534;18.700;2022-12-11T00:36:30;6.53;;;3.05;;
25511;SDS011;13414;44.534;18.700;2022-12-11T00:38:57;5.05;;;2.30;;
25511;SDS011;13414;44.534;18.700;2022-12-11T00:41:24;6.68;;;2.25;;
25511;SDS011;13414;44.534;18.700;2022-12-11T00:43:52;8.02;;;3.10;;
25511;SDS011;13414;44.534;18.700;2022-12-11T00:46:20;6.32;;;2.67;;
25511;SDS011;13414;44.534;18.700;2022-12-11T00:48:48;6.05;;;2.28;;
25511;SDS011;13414;44.534;18.700;2022-12-11T00:51:15;5.03;;;2.08;;
25511;SDS011;13414;44.534;18.700;2022-12-11T00:53:43;4.43;;;1.95;;
25511;SDS011;13414;44.534;18.700;2022-12-11T00:56:11;4.93;;;2.35;;
25511;SDS011;13414;44.534;18.700;2022-12-11T00:58:40;5.97;;;2.42;;
25511;SDS011;13414;44.534;18.700;2022-12-11T01:01:09;4.47;;;2.10;;
25511;SDS011;13414;44.534;18.700;2022-12-11T01:03:39;4.63;;;2.35;;
25511;SDS011;13414;44.534;18.700;2022-12-11T01:06:07;5.68;;;2.85;;
25511;SDS011;13414;44.534;18.700;2022-12-11T01:08:38;4.50;;;1.90;;
25511;SDS011;13414;44.534;18.700;2022-12-11T01:11:06;4.50;;;1.80;;
25511;SDS011;13414;44.534;18.700;2022-12-11T01:13:34;2.67;;;1.38;;
25511;SDS011;13414;44.534;18.700;2022-12-11T01:16:04;4.00;;;1.58;;
25511;SDS011;13414;44.534;18.700;2022-12-11T01:18:33;3.85;;;1.83;;
25511;SDS011;13414;44.534;18.700;2022-12-11T01:21:05;3.05;;;1.50;;
25511;SDS011;13414;44.534;18.700;2022-12-11T01:23:34;3.20;;;1.50;;
25511;SDS011;13414;44.534;18.700;2022-12-11T01:26:05;3.50;;;1.40;;
25511;SDS011;13414;44.534;18.700;2022-12-11T01:28:33;3.30;;;1.52;;
25511;SDS011;13414;44.534;18.700;2022-12-11T01:31:01;3.45;;;1.73;;
25511;SDS011;13414;44.534;18.700;2022-12-11T01:33:28;3.55;;;1.67;;
25511;SDS011;13414;44.534;18.700;2022-12-11T01:35:56;3.53;;;1.58;;
25511;SDS011;13414;44.534;18.700;2022-12-11T01:38:25;3.55;;;2.03;;
25511;SDS011;13414;44.534;18.700;2022-12-11T01:40:52;4.10;;;1.75;;
25511;SDS011;13414;44.534;18.700;2022-12-11T01:43:20;4.13;;;1.70;;
25511;SDS011;13414;44.534;18.700;2022-12-11T01:45:47;2.47;;;1.13;;
25511;SDS011;13414;44.534;18.700;2022-12-11T01:48:16;2.47;;;1.10;;
25511;SDS011;13414;44.534;18.700;2022-12-11T01:50:48;2.55;;;1.15;;
25511;SDS011;13414;44.534;18.700;2022-12-11T01:53:18;2.92;;;1.10;;
25511;SDS011;13414;44.534;18.700;2022-12-11T01:55:50;14.65;;;8.80;;
25511;SDS011;13414;44.534;18.700;2022-12-11T01:58:21;21.27;;;13.20;;
25511;SDS011;13414;44.534;18.700;2022-12-11T02:00:52;7.93;;;4.13;;
25511;SDS011;13414;44.534;18.700;2022-12-11T02:03:20;9.73;;;6.13;;
25511;SDS011;13414;44.534;18.700;2022-12-11T02:05:47;4.03;;;1.83;;
25511;SDS011;13414;44.534;18.700;2022-12-11T02:08:15;3.42;;;1.50;;
25511;SDS011;13414;44.534;18.700;2022-12-11T02:10:47;2.38;;;1.38;;
25511;SDS011;13414;44.534;18.700;2022-12-11T02:13:25;2.40;;;1.15;;
25511;SDS011;13414;44.534;18.700;2022-12-11T02:16:03;2.80;;;1.35;;
25511;SDS011;13414;44.534;18.700;2022-12-11T02:21:06;2.45;;;1.10;;
25511;SDS011;13414;44.534;18.700;2022-12-11T02:23:53;2.65;;;1.08;;
25511;SDS011;13414;44.534;18.700;2022-12-11T02:26:42;3.25;;;1.20;;
25511;SDS011;13414;44.534;18.700;2022-12-11T02:29:19;2.53;;;1.15;;
25511;SDS011;13414;44.534;18.700;2022-12-11T02:31:52;2.72;;;1.42;;
25511;SDS011;13414;44.534;18.700;2022-12-11T02:34:27;2.97;;;1.63;;
25511;SDS011;13414;44.534;18.700;2022-12-11T02:37:03;2.90;;;1.33;;
25511;SDS011;13414;44.534;18.700;2022-12-11T02:39:34;3.00;;;1.52;;
25511;SDS011;13414;44.534;18.700;2022-12-11T02:42:06;3.40;;;1.92;;
25511;SDS011;13414;44.534;18.700;2022-12-11T02:44:36;3.63;;;1.80;;
25511;SDS011;13414;44.534;18.700;2022-12-11T02:47:06;3.20;;;1.80;;
25511;SDS011;13414;44.534;18.700;2022-12-11T02:49:37;3.60;;;1.65;;
25511;SDS011;13414;44.534;18.700;2022-12-11T02:52:08;2.83;;;1.52;;
25511;SDS011;13414;44.534;18.700;2022-12-11T02:54:40;3.10;;;1.77;;
25511;SDS011;13414;44.534;18.700;2022-12-11T02:57:11;4.30;;;1.63;;
25511;SDS011;13414;44.534;18.700;2022-12-11T02:59:43;2.88;;;1.50;;
25511;SDS011;13414;44.534;18.700;2022-12-11T03:02:12;3.50;;;1.75;;
25511;SDS011;13414;44.534;18.700;2022-12-11T03:04:40;3.38;;;2.15;;
25511;SDS011;13414;44.534;18.700;2022-12-11T03:07:09;3.58;;;1.70;;
25511;SDS011;13414;44.534;18.700;2022-12-11T03:09:42;2.78;;;1.70;;
25511;SDS011;13414;44.534;18.700;2022-12-11T03:12:12;3.75;;;2.00;;
25511;SDS011;13414;44.534;18.700;2022-12-11T03:14:45;3.22;;;1.98;;
25511;SDS011;13414;44.534;18.700;2022-12-11T03:17:14;3.90;;;2.10;;
25511;SDS011;13414;44.534;18.700;2022-12-11T03:19:47;4.18;;;2.10;;
25511;SDS011;13414;44.534;18.700;2022-12-11T03:22:21;3.75;;;1.75;;
25511;SDS011;13414;44.534;18.700;2022-12-11T03:24:58;4.00;;;2.05;;
25511;SDS011;13414;44.534;18.700;2022-12-11T03:27:29;3.42;;;1.88;;
25511;SDS011;13414;44.534;18.700;2022-12-11T03:30:05;4.28;;;1.92;;
25511;SDS011;13414;44.534;18.700;2022-12-11T03:32:37;4.28;;;2.30;;
25511;SDS011;13414;44.534;18.700;2022-12-11T03:35:08;5.22;;;2.30;;
25511;SDS011;13414;44.534;18.700;2022-12-11T03:37:39;4.45;;;2.08;;
25511;SDS011;13414;44.534;18.700;2022-12-11T03:40:09;4.60;;;2.40;;
25511;SDS011;13414;44.534;18.700;2022-12-11T03:42:40;5.13;;;2.05;;
25511;SDS011;13414;44.534;18.700;2022-12-11T03:45:11;4.10;;;2.10;;
25511;SDS011;13414;44.534;18.700;2022-12-11T03:47:39;3.83;;;2.10;;
25511;SDS011;13414;44.534;18.700;2022-12-11T03:50:09;3.38;;;2.15;;
25511;SDS011;13414;44.534;18.700;2022-12-11T03:52:40;5.32;;;2.70;;
25511;SDS011;13414;44.534;18.700;2022-12-11T03:55:10;5.30;;;3.08;;
25511;SDS011;13414;44.534;18.700;2022-12-11T03:57:39;3.90;;;2.17;;
25511;SDS011;13414;44.534;18.700;2022-12-11T04:00:08;5.22;;;2.63;;
25511;SDS011;13414;44.534;18.700;2022-12-11T04:02:39;6.50;;;3.00;;
25511;SDS011;13414;44.534;18.700;2022-12-11T04:05:07;6.35;;;3.05;;
25511;SDS011;13414;44.534;18.700;2022-12-11T04:07:35;5.05;;;2.60;;
25511;SDS011;13414;44.534;18.700;2022-12-11T04:10:02;5.57;;;3.00;;
25511;SDS011;13414;44.534;18.700;2022-12-11T04:12:31;5.72;;;3.55;;
25511;SDS011;13414;44.534;18.700;2022-12-11T04:14:58;5.97;;;2.97;;
25511;SDS011;13414;44.534;18.700;2022-12-11T04:17:29;5.25;;;2.88;;
25511;SDS011;13414;44.534;18.700;2022-12-11T04:20:14;5.55;;;2.90;;
25511;SDS011;13414;44.534;18.700;2022-12-11T04:22:59;6.03;;;3.40;;
25511;SDS011;13414;44.534;18.700;2022-12-11T04:25:46;8.15;;;3.85;;
25511;SDS011;13414;44.534;18.700;2022-12-11T04:28:13;7.45;;;3.47;;
25511;SDS011;13414;44.534;18.700;2022-12-11T04:30:46;10.63;;;3.65;;
25511;SDS011;13414;44.534;18.700;2022-12-11T04:33:16;8.65;;;3.78;;
25511;SDS011;13414;44.534;18.700;2022-12-11T04:35:44;5.75;;;3.33;;
25511;SDS011;13414;44.534;18.700;2022-12-11T04:38:11;5.57;;;3.10;;
25511;SDS011;13414;44.534;18.700;2022-12-11T04:40:39;6.07;;;3.25;;
25511;SDS011;13414;44.534;18.700;2022-12-11T04:43:06;6.70;;;3.15;;
25511;SDS011;13414;44.534;18.700;2022-12-11T04:45:33;5.30;;;2.90;;
25511;SDS011;13414;44.534;18.700;2022-12-11T04:48:01;5.30;;;2.90;;
25511;SDS011;13414;44.534;18.700;2022-12-11T04:50:29;7.35;;;3.30;;
25511;SDS011;13414;44.534;18.700;2022-12-11T04:52:57;7.78;;;3.55;;
25511;SDS011;13414;44.534;18.700;2022-12-11T04:55:24;6.75;;;3.40;;
25511;SDS011;13414;44.534;18.700;2022-12-11T04:57:51;6.75;;;3.50;;
25511;SDS011;13414;44.534;18.700;2022-12-11T05:00:19;6.43;;;3.78;;
25511;SDS011;13414;44.534;18.700;2022-12-11T05:02:47;6.80;;;3.90;;
25511;SDS011;13414;44.534;18.700;2022-12-11T05:05:14;6.00;;;3.92;;
25511;SDS011;13414;44.534;18.700;2022-12-11T05:07:43;6.93;;;3.88;;
25511;SDS011;13414;44.534;18.700;2022-12-11T05:10:10;6.93;;;3.95;;
25511;SDS011;13414;44.534;18.700;2022-12-11T05:12:38;7.82;;;4.43;;
25511;SDS011;13414;44.534;18.700;2022-12-11T05:15:05;6.80;;;3.97;;
25511;SDS011;13414;44.534;18.700;2022-12-11T05:17:33;7.00;;;3.55;;
25511;SDS011;13414;44.534;18.700;2022-12-11T05:20:01;8.77;;;4.57;;
25511;SDS011;13414;44.534;18.700;2022-12-11T05:22:28;6.65;;;4.13;;
25511;SDS011;13414;44.534;18.700;2022-12-11T05:24:57;9.63;;;4.43;;
25511;SDS011;13414;44.534;18.700;2022-12-11T05:27:25;9.57;;;5.05;;
25511;SDS011;13414;44.534;18.700;2022-12-11T05:29:52;8.70;;;4.43;;
25511;SDS011;13414;44.534;18.700;2022-12-11T05:32:19;7.40;;;4.25;;
25511;SDS011;13414;44.534;18.700;2022-12-11T05:34:48;7.38;;;4.55;;
25511;SDS011;13414;44.534;18.700;2022-12-11T05:37:16;8.02;;;4.88;;
25511;SDS011;13414;44.534;18.700;2022-12-11T05:39:43;5.78;;;3.92;;
25511;SDS011;13414;44.534;18.700;2022-12-11T05:42:12;6.75;;;4.22;;
25511;SDS011;13414;44.534;18.700;2022-12-11T05:44:39;7.15;;;4.28;;
25511;SDS011;13414;44.534;18.700;2022-12-11T05:47:06;7.82;;;4.55;;
25511;SDS011;13414;44.534;18.700;2022-12-11T05:49:34;7.50;;;4.75;;
25511;SDS011;13414;44.534;18.700;2022-12-11T05:52:02;8.38;;;4.85;;
25511;SDS011;13414;44.534;18.700;2022-12-11T05:54:29;9.18;;;5.50;;
25511;SDS011;13414;44.534;18.700;2022-12-11T05:56:56;7.10;;;4.88;;
25511;SDS011;13414;44.534;18.700;2022-12-11T05:59:25;12.77;;;4.97;;
25511;SDS011;13414;44.534;18.700;2022-12-11T06:01:52;7.80;;;5.20;;
25511;SDS011;13414;44.534;18.700;2022-12-11T06:04:20;12.13;;;5.68;;
25511;SDS011;13414;44.534;18.700;2022-12-11T06:06:47;8.20;;;5.13;;
25511;SDS011;13414;44.534;18.700;2022-12-11T06:09:15;9.52;;;5.07;;
25511;SDS011;13414;44.534;18.700;2022-12-11T06:11:42;10.98;;;5.13;;
25511;SDS011;13414;44.534;18.700;2022-12-11T06:14:10;8.52;;;5.30;;
25511;SDS011;13414;44.534;18.700;2022-12-11T06:16:41;6.78;;;4.00;;
25511;SDS011;13414;44.534;18.700;2022-12-11T06:19:11;6.13;;;3.92;;
25511;SDS011;13414;44.534;18.700;2022-12-11T06:21:41;6.38;;;3.80;;
25511;SDS011;13414;44.534;18.700;2022-12-11T06:24:09;7.32;;;4.28;;
25511;SDS011;13414;44.534;18.700;2022-12-11T06:26:36;17.23;;;13.18;;
25511;SDS011;13414;44.534;18.700;2022-12-11T06:29:04;17.35;;;14.40;;
25511;SDS011;13414;44.534;18.700;2022-12-11T06:31:31;11.63;;;6.88;;
25511;SDS011;13414;44.534;18.700;2022-12-11T06:34:00;13.48;;;9.55;;
25511;SDS011;13414;44.534;18.700;2022-12-11T06:36:28;10.65;;;7.72;;
25511;SDS011;13414;44.534;18.700;2022-12-11T06:38:56;9.77;;;6.25;;
25511;SDS011;13414;44.534;18.700;2022-12-11T06:41:23;11.30;;;6.80;;
25511;SDS011;13414;44.534;18.700;2022-12-11T06:43:50;10.30;;;6.63;;
25511;SDS011;13414;44.534;18.700;2022-12-11T06:46:18;9.82;;;6.70;;
25511;SDS011;13414;44.534;18.700;2022-12-11T06:48:46;11.02;;;7.32;;
25511;SDS011;13414;44.534;18.700;2022-12-11T06:51:16;13.63;;;7.75;;
25511;SDS011;13414;44.534;18.700;2022-12-11T06:53:48;12.95;;;7.15;;
25511;SDS011;13414;44.534;18.700;2022-12-11T06:56:17;11.25;;;6.95;;
25511;SDS011;13414;44.534;18.700;2022-12-11T06:58:45;12.70;;;7.45;;
25511;SDS011;13414;44.534;18.700;2022-12-11T07:01:13;10.65;;;6.72;;
25511;SDS011;13414;44.534;18.700;2022-12-11T07:03:41;12.88;;;6.75;;
25511;SDS011;13414;44.534;18.700;2022-12-11T07:06:09;11.40;;;7.07;;
25511;SDS011;13414;44.534;18.700;2022-12-11T07:08:38;10.57;;;7.18;;
25511;SDS011;13414;44.534;18.700;2022-12-11T07:11:06;11.05;;;7.03;;
25511;SDS011;13414;44.534;18.700;2022-12-11T07:13:35;11.32;;;7.63;;
25511;SDS011;13414;44.534;18.700;2022-12-11T07:16:03;11.15;;;7.78;;
25511;SDS011;13414;44.534;18.700;2022-12-11T07:18:35;13.35;;;8.70;;
25511;SDS011;13414;44.534;18.700;2022-12-11T07:21:03;10.70;;;6.63;;
25511;SDS011;13414;44.534;18.700;2022-12-11T07:23:31;9.90;;;6.80;;
25511;SDS011;13414;44.534;18.700;2022-12-11T07:26:04;11.75;;;7.50;;
25511;SDS011;13414;44.534;18.700;2022-12-11T07:28:32;11.95;;;7.25;;
25511;SDS011;13414;44.534;18.700;2022-12-11T07:31:03;12.07;;;7.63;;
25511;SDS011;13414;44.534;18.700;2022-12-11T07:33:31;16.95;;;9.65;;
25511;SDS011;13414;44.534;18.700;2022-12-11T07:35:59;16.20;;;9.48;;
25511;SDS011;13414;44.534;18.700;2022-12-11T07:38:28;19.13;;;9.77;;
25511;SDS011;13414;44.534;18.700;2022-12-11T07:40:55;29.58;;;13.45;;
25511;SDS011;13414;44.534;18.700;2022-12-11T07:43:28;29.83;;;14.65;;
25511;SDS011;13414;44.534;18.700;2022-12-11T07:45:59;43.53;;;19.92;;
25511;SDS011;13414;44.534;18.700;2022-12-11T07:48:27;47.50;;;21.02;;
25511;SDS011;13414;44.534;18.700;2022-12-11T07:50:54;55.95;;;24.35;;
25511;SDS011;13414;44.534;18.700;2022-12-11T07:53:22;53.97;;;26.33;;
25511;SDS011;13414;44.534;18.700;2022-12-11T07:55:49;65.00;;;30.48;;
25511;SDS011;13414;44.534;18.700;2022-12-11T07:58:18;64.30;;;29.80;;
25511;SDS011;13414;44.534;18.700;2022-12-11T08:00:50;83.22;;;40.13;;
25511;SDS011;13414;44.534;18.700;2022-12-11T08:03:21;88.38;;;39.55;;
25511;SDS011;13414;44.534;18.700;2022-12-11T08:05:51;96.28;;;43.88;;
25511;SDS011;13414;44.534;18.700;2022-12-11T08:08:37;107.07;;;45.03;;
25511;SDS011;13414;44.534;18.700;2022-12-11T08:11:06;102.75;;;42.65;;
25511;SDS011;13414;44.534;18.700;2022-12-11T08:13:35;91.53;;;37.53;;
25511;SDS011;13414;44.534;18.700;2022-12-11T08:16:05;85.13;;;35.35;;
25511;SDS011;13414;44.534;18.700;2022-12-11T08:18:34;76.22;;;32.00;;
25511;SDS011;13414;44.534;18.700;2022-12-11T08:21:03;69.38;;;29.30;;
25511;SDS011;13414;44.534;18.700;2022-12-11T08:23:32;68.45;;;29.75;;
25511;SDS011;13414;44.534;18.700;2022-12-11T08:26:00;66.95;;;30.02;;
25511;SDS011;13414;44.534;18.700;2022-12-11T08:28:28;74.25;;;32.80;;
25511;SDS011;13414;44.534;18.700;2022-12-11T08:30:56;77.00;;;32.25;;
25511;SDS011;13414;44.534;18.700;2022-12-11T08:33:27;62.67;;;28.75;;
25511;SDS011;13414;44.534;18.700;2022-12-11T08:35:55;69.72;;;31.88;;
25511;SDS011;13414;44.534;18.700;2022-12-11T08:38:23;72.70;;;31.25;;
25511;SDS011;13414;44.534;18.700;2022-12-11T08:40:50;58.08;;;29.52;;
25511;SDS011;13414;44.534;18.700;2022-12-11T08:43:18;65.95;;;30.25;;
25511;SDS011;13414;44.534;18.700;2022-12-11T08:46:00;57.10;;;30.40;;
25511;SDS011;13414;44.534;18.700;2022-12-11T08:48:29;62.30;;;29.50;;
25511;SDS011;13414;44.534;18.700;2022-12-11T08:50:58;59.97;;;30.17;;
25511;SDS011;13414;44.534;18.700;2022-12-11T08:53:27;51.10;;;27.77;;
25511;SDS011;13414;44.534;18.700;2022-12-11T08:55:59;55.75;;;31.33;;
25511;SDS011;13414;44.534;18.700;2022-12-11T08:58:27;59.55;;;32.58;;
25511;SDS011;13414;44.534;18.700;2022-12-11T09:00:56;53.25;;;31.38;;
25511;SDS011;13414;44.534;18.700;2022-12-11T09:03:23;56.00;;;30.40;;
25511;SDS011;13414;44.534;18.700;2022-12-11T09:05:53;46.63;;;26.70;;
25511;SDS011;13414;44.534;18.700;2022-12-11T09:08:20;41.42;;;24.23;;
25511;SDS011;13414;44.534;18.700;2022-12-11T09:10:47;38.78;;;21.83;;
25511;SDS011;13414;44.534;18.700;2022-12-11T09:13:15;39.72;;;23.10;;
25511;SDS011;13414;44.534;18.700;2022-12-11T09:15:42;36.17;;;20.80;;
25511;SDS011;13414;44.534;18.700;2022-12-11T09:18:10;36.55;;;19.05;;
25511;SDS011;13414;44.534;18.700;2022-12-11T09:20:38;33.63;;;17.13;;
25511;SDS011;13414;44.534;18.700;2022-12-11T09:23:10;28.27;;;17.15;;
25511;SDS011;13414;44.534;18.700;2022-12-11T09:25:38;31.75;;;17.23;;
25511;SDS011;13414;44.534;18.700;2022-12-11T09:28:05;29.02;;;17.00;;
25511;SDS011;13414;44.534;18.700;2022-12-11T09:30:34;32.13;;;17.40;;
25511;SDS011;13414;44.534;18.700;2022-12-11T09:33:01;29.13;;;16.25;;
25511;SDS011;13414;44.534;18.700;2022-12-11T09:35:29;24.17;;;16.08;;
25511;SDS011;13414;44.534;18.700;2022-12-11T09:37:57;27.58;;;15.55;;
25511;SDS011;13414;44.534;18.700;2022-12-11T09:40:29;26.02;;;16.67;;
25511;SDS011;13414;44.534;18.700;2022-12-11T09:42:59;25.20;;;16.25;;
25511;SDS011;13414;44.534;18.700;2022-12-11T09:45:32;24.73;;;16.38;;
25511;SDS011;13414;44.534;18.700;2022-12-11T09:48:04;28.20;;;16.38;;
25511;SDS011;13414;44.534;18.700;2022-12-11T09:50:35;28.40;;;17.85;;
25511;SDS011;13414;44.534;18.700;2022-12-11T09:53:04;24.50;;;16.35;;
25511;SDS011;13414;44.534;18.700;2022-12-11T09:55:42;23.35;;;15.90;;
25511;SDS011;13414;44.534;18.700;2022-12-11T09:58:17;24.38;;;14.32;;
25511;SDS011;13414;44.534;18.700;2022-12-11T10:00:54;28.00;;;16.48;;
25511;SDS011;13414;44.534;18.700;2022-12-11T10:06:20;25.23;;;15.48;;
25511;SDS011;13414;44.534;18.700;2022-12-11T10:08:54;23.90;;;16.05;;
25511;SDS011;13414;44.534;18.700;2022-12-11T10:11:42;24.17;;;14.85;;
25511;SDS011;13414;44.534;18.700;2022-12-11T10:14:28;23.55;;;14.88;;
25511;SDS011;13414;44.534;18.700;2022-12-11T10:17:05;23.27;;;14.25;;
25511;SDS011;13414;44.534;18.700;2022-12-11T10:19:38;26.75;;;16.58;;
25511;SDS011;13414;44.534;18.700;2022-12-11T10:22:11;26.38;;;16.05;;
25511;SDS011;13414;44.534;18.700;2022-12-11T10:24:44;25.90;;;16.67;;
25511;SDS011;13414;44.534;18.700;2022-12-11T10:27:26;34.55;;;20.17;;
25511;SDS011;13414;44.534;18.700;2022-12-11T10:29:59;28.98;;;17.92;;
25511;SDS011;13414;44.534;18.700;2022-12-11T10:32:36;30.88;;;18.02;;
25511;SDS011;13414;44.534;18.700;2022-12-11T10:35:12;30.67;;;18.33;;
25511;SDS011;13414;44.534;18.700;2022-12-11T10:37:45;32.20;;;19.35;;
25511;SDS011;13414;44.534;18.700;2022-12-11T10:40:13;33.53;;;20.75;;
25511;SDS011;13414;44.534;18.700;2022-12-11T10:42:51;32.22;;;20.17;;
25511;SDS011;13414;44.534;18.700;2022-12-11T10:45:20;36.60;;;21.52;;
25511;SDS011;13414;44.534;18.700;2022-12-11T10:47:47;39.40;;;22.95;;
25511;SDS011;13414;44.534;18.700;2022-12-11T10:50:21;47.38;;;26.55;;
25511;SDS011;13414;44.534;18.700;2022-12-11T10:52:50;39.72;;;25.05;;
25511;SDS011;13414;44.534;18.700;2022-12-11T10:55:19;45.45;;;25.45;;
25511;SDS011;13414;44.534;18.700;2022-12-11T10:57:56;41.20;;;24.88;;
25511;SDS011;13414;44.534;18.700;2022-12-11T11:00:28;43.53;;;25.58;;
25511;SDS011;13414;44.534;18.700;2022-12-11T11:03:01;43.95;;;26.05;;
25511;SDS011;13414;44.534;18.700;2022-12-11T11:05:32;55.65;;;27.60;;
25511;SDS011;13414;44.534;18.700;2022-12-11T11:08:11;55.20;;;27.38;;
25511;SDS011;13414;44.534;18.700;2022-12-11T11:10:50;52.85;;;27.67;;
25511;SDS011;13414;44.534;18.700;2022-12-11T11:13:24;50.13;;;26.73;;
25511;SDS011;13414;44.534;18.700;2022-12-11T11:15:57;49.47;;;26.50;;
25511;SDS011;13414;44.534;18.700;2022-12-11T11:18:26;44.75;;;25.30;;
25511;SDS011;13414;44.534;18.700;2022-12-11T11:20:55;44.50;;;26.35;;
25511;SDS011;13414;44.534;18.700;2022-12-11T11:23:23;44.42;;;25.35;;
25511;SDS011;13414;44.534;18.700;2022-12-11T11:25:52;40.53;;;25.20;;
25511;SDS011;13414;44.534;18.700;2022-12-11T11:28:24;45.88;;;28.15;;
25511;SDS011;13414;44.534;18.700;2022-12-11T11:30:55;39.95;;;24.17;;
25511;SDS011;13414;44.534;18.700;2022-12-11T11:33:29;44.17;;;23.50;;
25511;SDS011;13414;44.534;18.700;2022-12-11T11:35:59;35.50;;;21.25;;
25511;SDS011;13414;44.534;18.700;2022-12-11T11:38:28;31.15;;;20.38;;
25511;SDS011;13414;44.534;18.700;2022-12-11T11:41:03;32.10;;;20.67;;
25511;SDS011;13414;44.534;18.700;2022-12-11T11:43:41;28.67;;;18.13;;
25511;SDS011;13414;44.534;18.700;2022-12-11T11:46:11;30.13;;;18.70;;
25511;SDS011;13414;44.534;18.700;2022-12-11T11:48:45;31.02;;;17.77;;
25511;SDS011;13414;44.534;18.700;2022-12-11T11:51:22;31.17;;;19.45;;
25511;SDS011;13414;44.534;18.700;2022-12-11T11:53:55;30.13;;;19.75;;
25511;SDS011;13414;44.534;18.700;2022-12-11T11:56:27;31.92;;;20.65;;
25511;SDS011;13414;44.534;18.700;2022-12-11T11:59:04;27.42;;;17.90;;
25511;SDS011;13414;44.534;18.700;2022-12-11T12:01:39;26.13;;;17.48;;
25511;SDS011;13414;44.534;18.700;2022-12-11T12:04:08;27.95;;;17.60;;
25511;SDS011;13414;44.534;18.700;2022-12-11T12:06:47;25.52;;;16.60;;
25511;SDS011;13414;44.534;18.700;2022-12-11T12:09:35;26.58;;;17.60;;
25511;SDS011;13414;44.534;18.700;2022-12-11T12:12:18;25.65;;;17.10;;
25511;SDS011;13414;44.534;18.700;2022-12-11T12:15:05;25.63;;;17.48;;
25511;SDS011;13414;44.534;18.700;2022-12-11T12:17:53;30.27;;;19.67;;
25511;SDS011;13414;44.534;18.700;2022-12-11T12:20:31;27.02;;;17.65;;
25511;SDS011;13414;44.534;18.700;2022-12-11T12:25:56;29.20;;;19.15;;
25511;SDS011;13414;44.534;18.700;2022-12-11T12:28:38;29.80;;;20.23;;
25511;SDS011;13414;44.534;18.700;2022-12-11T12:31:21;33.90;;;22.25;;
25511;SDS011;13414;44.534;18.700;2022-12-11T12:34:02;28.40;;;19.88;;
25511;SDS011;13414;44.534;18.700;2022-12-11T12:36:37;30.00;;;19.50;;
25511;SDS011;13414;44.534;18.700;2022-12-11T12:39:14;27.85;;;19.27;;
25511;SDS011;13414;44.534;18.700;2022-12-11T12:41:49;35.58;;;23.23;;
25511;SDS011;13414;44.534;18.700;2022-12-11T12:44:23;27.77;;;18.43;;
25511;SDS011;13414;44.534;18.700;2022-12-11T12:46:59;29.08;;;18.65;;
25511;SDS011;13414;44.534;18.700;2022-12-11T12:49:36;27.48;;;18.65;;
25511;SDS011;13414;44.534;18.700;2022-12-11T12:52:10;25.00;;;16.60;;
25511;SDS011;13414;44.534;18.700;2022-12-11T12:54:41;24.88;;;16.70;;
25511;SDS011;13414;44.534;18.700;2022-12-11T12:57:32;28.95;;;17.00;;
25511;SDS011;13414;44.534;18.700;2022-12-11T13:00:00;22.00;;;13.35;;
25511;SDS011;13414;44.534;18.700;2022-12-11T13:02:29;22.05;;;14.98;;
25511;SDS011;13414;44.534;18.700;2022-12-11T13:04:59;26.23;;;16.20;;
25511;SDS011;13414;44.534;18.700;2022-12-11T13:07:30;22.48;;;13.88;;
25511;SDS011;13414;44.534;18.700;2022-12-11T13:10:02;25.63;;;15.05;;
25511;SDS011;13414;44.534;18.700;2022-12-11T13:12:33;21.55;;;13.65;;
25511;SDS011;13414;44.534;18.700;2022-12-11T13:21:00;23.38;;;15.32;;
25511;SDS011;13414;44.534;18.700;2022-12-11T13:23:29;24.35;;;15.90;;
25511;SDS011;13414;44.534;18.700;2022-12-11T13:25:58;22.00;;;15.05;;
25511;SDS011;13414;44.534;18.700;2022-12-11T13:28:30;22.02;;;13.73;;
25511;SDS011;13414;44.534;18.700;2022-12-11T13:31:01;22.23;;;13.90;;
25511;SDS011;13414;44.534;18.700;2022-12-11T13:33:36;22.58;;;13.82;;
25511;SDS011;13414;44.534;18.700;2022-12-11T13:36:19;22.05;;;14.43;;
25511;SDS011;13414;44.534;18.700;2022-12-11T13:39:05;28.80;;;17.30;;
25511;SDS011;13414;44.534;18.700;2022-12-11T13:41:42;22.08;;;15.18;;
25511;SDS011;13414;44.534;18.700;2022-12-11T13:44:14;20.42;;;13.55;;
25511;SDS011;13414;44.534;18.700;2022-12-11T13:46:46;23.60;;;14.55;;
25511;SDS011;13414;44.534;18.700;2022-12-11T13:49:25;21.40;;;14.07;;
25511;SDS011;13414;44.534;18.700;2022-12-11T13:51:56;23.15;;;13.57;;
25511;SDS011;13414;44.534;18.700;2022-12-11T13:54:25;21.55;;;14.10;;
25511;SDS011;13414;44.534;18.700;2022-12-11T13:57:02;20.48;;;13.50;;
25511;SDS011;13414;44.534;18.700;2022-12-11T13:59:40;18.88;;;12.63;;
25511;SDS011;13414;44.534;18.700;2022-12-11T14:02:11;22.40;;;14.02;;
25511;SDS011;13414;44.534;18.700;2022-12-11T14:04:44;20.30;;;13.88;;
25511;SDS011;13414;44.534;18.700;2022-12-11T14:07:15;20.88;;;14.38;;
25511;SDS011;13414;44.534;18.700;2022-12-11T14:09:49;21.65;;;14.43;;
25511;SDS011;13414;44.534;18.700;2022-12-11T14:12:25;25.70;;;16.50;;
25511;SDS011;13414;44.534;18.700;2022-12-11T14:14:56;28.20;;;17.25;;
25511;SDS011;13414;44.534;18.700;2022-12-11T14:17:27;27.52;;;16.27;;
25511;SDS011;13414;44.534;18.700;2022-12-11T14:19:59;25.08;;;16.15;;
25511;SDS011;13414;44.534;18.700;2022-12-11T14:22:33;25.00;;;15.73;;
25511;SDS011;13414;44.534;18.700;2022-12-11T14:25:12;27.42;;;17.40;;
25511;SDS011;13414;44.534;18.700;2022-12-11T14:28:12;29.75;;;18.45;;
25511;SDS011;13414;44.534;18.700;2022-12-11T14:30:44;24.40;;;15.40;;
25511;SDS011;13414;44.534;18.700;2022-12-11T14:33:15;22.92;;;15.55;;
25511;SDS011;13414;44.534;18.700;2022-12-11T14:35:46;27.33;;;16.52;;
25511;SDS011;13414;44.534;18.700;2022-12-11T14:38:17;25.73;;;16.40;;
25511;SDS011;13414;44.534;18.700;2022-12-11T14:40:49;25.27;;;16.98;;
25511;SDS011;13414;44.534;18.700;2022-12-11T14:43:27;34.38;;;22.25;;
25511;SDS011;13414;44.534;18.700;2022-12-11T14:46:01;31.05;;;19.10;;
25511;SDS011;13414;44.534;18.700;2022-12-11T14:48:34;28.20;;;18.25;;
25511;SDS011;13414;44.534;18.700;2022-12-11T14:51:22;27.20;;;17.83;;
25511;SDS011;13414;44.534;18.700;2022-12-11T14:53:57;33.53;;;21.15;;
25511;SDS011;13414;44.534;18.700;2022-12-11T14:56:26;32.63;;;20.58;;
25511;SDS011;13414;44.534;18.700;2022-12-11T14:59:01;34.88;;;21.42;;